createdAt,value
2017-10-09T00:00:32.495Z,3.10
2017-10-09T00:03:00.591Z,2.80
2017-10-09T00:05:28.677Z,3.47
2017-10-09T00:07:56.752Z,2.33
2017-10-09T00:10:24.876Z,2.53
2017-10-09T00:12:53.714Z,1.67
2017-10-09T00:15:21.785Z,3.57
2017-10-09T00:17:49.871Z,2.10
2017-10-09T00:20:17.998Z,1.73
2017-10-09T00:22:46.862Z,1.00
2017-10-09T00:25:14.926Z,1.30
2017-10-09T00:27:42.996Z,1.40
2017-10-09T00:30:11.066Z,1.20
2017-10-09T00:32:39.134Z,2.10
2017-10-09T00:35:07.997Z,1.30
2017-10-09T00:37:36.093Z,1.47
2017-10-09T00:40:04.188Z,1.50
2017-10-09T00:42:32.282Z,1.50
2017-10-09T00:45:01.130Z,1.20
2017-10-09T00:47:29.259Z,1.10
2017-10-09T00:49:57.313Z,1.57
2017-10-09T00:52:26.167Z,3.20
2017-10-09T00:54:54.253Z,2.30
2017-10-09T00:57:22.349Z,1.80
2017-10-09T00:59:50.406Z,1.97
2017-10-09T01:02:18.551Z,1.73
2017-10-09T01:04:46.626Z,2.37
2017-10-09T01:07:14.699Z,2.00
2017-10-09T01:09:42.796Z,4.00
2017-10-09T01:12:11.626Z,1.10
2017-10-09T01:14:39.720Z,3.10
2017-10-09T01:17:07.789Z,1.80
2017-10-09T01:19:35.875Z,1.67
2017-10-09T01:22:03.944Z,5.00
2017-10-09T01:24:32.014Z,1.50
2017-10-09T01:27:00.121Z,1.73
2017-10-09T01:29:28.194Z,1.97
2017-10-09T01:31:56.290Z,2.07
2017-10-09T01:34:25.118Z,1.23
2017-10-09T01:36:53.185Z,5.00
2017-10-09T01:39:21.292Z,3.70
2017-10-09T01:41:49.366Z,3.00
2017-10-09T01:44:17.443Z,2.00
2017-10-09T01:46:46.140Z,1.90
2017-10-09T01:49:14.255Z,1.33
2017-10-09T01:51:42.361Z,1.70
2017-10-09T01:54:10.567Z,2.40
2017-10-09T01:56:39.438Z,1.70
2017-10-09T01:59:07.575Z,2.00
2017-10-09T02:01:35.684Z,2.00
2017-10-09T02:04:03.802Z,1.43
2017-10-09T02:06:31.926Z,1.63
2017-10-09T02:09:00.050Z,2.83
2017-10-09T02:11:29.145Z,2.30
2017-10-09T02:13:58.009Z,1.70
2017-10-09T02:16:26.858Z,3.33
2017-10-09T02:18:54.959Z,2.13
2017-10-09T02:21:23.038Z,4.20
2017-10-09T02:23:51.149Z,3.63
2017-10-09T02:26:19.218Z,1.97
2017-10-09T02:28:47.289Z,3.73
2017-10-09T02:31:16.038Z,3.87
2017-10-09T02:33:44.905Z,1.30
2017-10-09T02:36:13.013Z,3.83
2017-10-09T02:38:41.860Z,2.37
2017-10-09T02:41:09.936Z,4.53
2017-10-09T02:43:38.039Z,1.60
2017-10-09T02:46:06.352Z,1.03
2017-10-09T02:48:34.464Z,2.27
2017-10-09T02:51:03.340Z,1.73
2017-10-09T02:53:32.202Z,1.00
2017-10-09T02:56:00.308Z,1.37
2017-10-09T02:58:28.436Z,1.40
2017-10-09T03:00:58.019Z,1.50
2017-10-09T03:03:27.646Z,2.60
2017-10-09T03:05:55.752Z,2.30
2017-10-09T03:08:24.296Z,7.90
2017-10-09T03:10:52.428Z,2.23
2017-10-09T03:13:20.518Z,1.00
2017-10-09T03:15:48.613Z,1.10
2017-10-09T03:18:17.503Z,2.60
2017-10-09T03:20:46.350Z,2.20
2017-10-09T03:23:20.046Z,1.80
2017-10-09T03:25:50.576Z,1.57
2017-10-09T03:28:19.413Z,3.20
2017-10-09T03:30:47.521Z,2.20
2017-10-09T03:33:15.627Z,1.03
2017-10-09T03:35:43.730Z,2.00
2017-10-09T03:38:11.809Z,1.77
2017-10-09T03:40:40.715Z,2.70
2017-10-09T03:43:08.817Z,3.67
2017-10-09T03:45:37.653Z,3.10
2017-10-09T03:48:05.779Z,3.03
2017-10-09T03:50:34.457Z,3.87
2017-10-09T03:53:02.526Z,3.27
2017-10-09T03:55:30.622Z,2.20
2017-10-09T03:57:59.450Z,3.63
2017-10-09T04:00:27.580Z,1.47
2017-10-09T04:02:57.219Z,2.00
2017-10-09T04:05:25.363Z,3.80
2017-10-09T04:07:53.440Z,2.40
2017-10-09T04:10:21.556Z,1.63
2017-10-09T04:12:49.688Z,2.13
2017-10-09T04:15:17.789Z,1.40
2017-10-09T04:17:46.665Z,4.17
2017-10-09T04:20:15.533Z,2.93
2017-10-09T04:22:43.601Z,3.03
2017-10-09T04:25:12.473Z,1.90
2017-10-09T04:27:40.566Z,1.47
2017-10-09T04:30:08.642Z,2.90
2017-10-09T04:32:36.738Z,1.87
2017-10-09T04:35:05.582Z,2.83
2017-10-09T04:37:34.464Z,2.07
2017-10-09T04:40:02.535Z,3.90
2017-10-09T04:42:30.630Z,3.40
2017-10-09T04:44:59.627Z,4.00
2017-10-09T04:47:28.473Z,1.83
2017-10-09T04:49:56.559Z,1.90
2017-10-09T04:52:24.684Z,5.07
2017-10-09T04:54:53.621Z,5.00
2017-10-09T04:57:22.457Z,3.70
2017-10-09T04:59:50.642Z,3.03
2017-10-09T05:02:18.809Z,3.00
2017-10-09T05:04:47.672Z,3.33
2017-10-09T05:07:15.750Z,1.80
2017-10-09T05:09:44.585Z,3.43
2017-10-09T05:12:13.019Z,1.93
2017-10-09T05:14:41.100Z,2.00
2017-10-09T05:17:09.205Z,3.40
2017-10-09T05:19:37.285Z,2.83
2017-10-09T05:22:05.395Z,2.10
2017-10-09T05:24:33.481Z,5.93
2017-10-09T05:27:02.323Z,3.40
2017-10-09T05:29:30.410Z,2.90
2017-10-09T05:32:00.104Z,4.70
2017-10-09T05:34:28.185Z,2.20
2017-10-09T05:36:56.310Z,3.77
2017-10-09T05:39:25.019Z,6.03
2017-10-09T05:41:53.124Z,2.87
2017-10-09T05:44:21.207Z,1.83
2017-10-09T05:46:50.936Z,3.40
2017-10-09T05:49:20.666Z,1.80
2017-10-09T05:51:48.835Z,2.40
2017-10-09T05:54:16.905Z,4.90
2017-10-09T05:56:45.015Z,1.70
2017-10-09T05:59:13.127Z,3.93
2017-10-09T06:01:41.185Z,2.50
2017-10-09T06:04:10.069Z,1.90
2017-10-09T06:06:38.887Z,12.37
2017-10-09T06:09:07.742Z,2.80
2017-10-09T06:11:37.365Z,3.07
2017-10-09T06:14:05.462Z,2.10
2017-10-09T06:16:33.524Z,1.80
2017-10-09T06:19:01.637Z,2.50
2017-10-09T06:21:29.737Z,3.97
2017-10-09T06:23:57.831Z,3.27
2017-10-09T06:26:27.402Z,3.73
2017-10-09T06:28:56.255Z,4.33
2017-10-09T06:31:25.111Z,6.30
2017-10-09T06:33:53.218Z,2.37
2017-10-09T06:36:21.310Z,2.90
2017-10-09T06:38:49.458Z,2.87
2017-10-09T06:41:17.556Z,1.83
2017-10-09T06:43:45.703Z,2.53
2017-10-09T06:46:14.574Z,2.43
2017-10-09T06:48:43.439Z,1.53
2017-10-09T06:51:11.553Z,2.10
2017-10-09T06:53:40.448Z,4.30
2017-10-09T06:56:10.089Z,3.13
2017-10-09T06:58:38.247Z,4.00
2017-10-09T07:01:06.453Z,6.13
2017-10-09T07:03:34.582Z,5.73
2017-10-09T07:06:02.751Z,4.37
2017-10-09T07:08:30.854Z,3.87
2017-10-09T07:10:58.976Z,2.90
2017-10-09T07:13:27.099Z,5.00
2017-10-09T07:15:55.237Z,4.40
2017-10-09T07:18:23.361Z,4.70
2017-10-09T07:20:51.784Z,4.07
2017-10-09T07:23:19.901Z,4.13
2017-10-09T07:25:48.669Z,4.77
2017-10-09T07:28:16.842Z,6.20
2017-10-09T07:30:45.721Z,9.40
2017-10-09T07:33:13.842Z,3.87
2017-10-09T07:35:42.064Z,1.93
2017-10-09T07:38:10.953Z,3.47
2017-10-09T07:40:39.084Z,3.60
2017-10-09T07:43:07.964Z,4.67
2017-10-09T07:45:36.059Z,2.20
2017-10-09T07:48:04.199Z,3.90
2017-10-09T07:50:32.374Z,4.57
2017-10-09T07:53:00.512Z,2.73
2017-10-09T07:55:29.347Z,3.00
2017-10-09T07:57:57.575Z,4.57
2017-10-09T08:00:25.687Z,4.63
2017-10-09T08:02:53.820Z,3.90
2017-10-09T08:05:21.902Z,4.47
2017-10-09T08:07:50.007Z,6.20
2017-10-09T08:10:18.140Z,3.40
2017-10-09T08:12:47.027Z,4.40
2017-10-09T08:15:15.303Z,3.20
2017-10-09T08:17:43.415Z,3.13
2017-10-09T08:20:11.544Z,6.67
2017-10-09T08:22:39.641Z,4.27
2017-10-09T08:25:07.735Z,4.80
2017-10-09T08:27:35.854Z,7.27
2017-10-09T08:30:03.961Z,4.07
2017-10-09T08:32:32.083Z,4.23
2017-10-09T08:35:01.708Z,4.60
2017-10-09T08:37:29.825Z,7.30
2017-10-09T08:39:57.949Z,3.47
2017-10-09T08:42:26.060Z,3.50
2017-10-09T08:44:54.358Z,2.60
2017-10-09T08:47:22.483Z,5.60
2017-10-09T08:49:51.374Z,4.27
2017-10-09T08:52:20.341Z,4.10
2017-10-09T08:54:48.446Z,3.00
2017-10-09T08:57:16.603Z,2.20
2017-10-09T08:59:44.720Z,3.70
2017-10-09T09:02:12.813Z,2.73
2017-10-09T09:04:40.965Z,2.33
2017-10-09T09:07:09.809Z,2.80
2017-10-09T09:09:37.917Z,5.00
2017-10-09T09:12:06.058Z,4.00
2017-10-09T09:14:34.939Z,2.83
2017-10-09T09:17:03.066Z,4.90
2017-10-09T09:19:31.190Z,4.13
2017-10-09T09:21:59.348Z,3.73
2017-10-09T09:24:27.497Z,3.20
2017-10-09T09:26:55.606Z,6.20
2017-10-09T09:29:24.587Z,4.10
2017-10-09T09:31:53.529Z,4.07
2017-10-09T09:34:21.669Z,4.37
2017-10-09T09:36:50.560Z,2.73
2017-10-09T09:39:18.722Z,7.77
2017-10-09T09:41:46.851Z,6.33
2017-10-09T09:44:14.976Z,4.33
2017-10-09T09:46:43.084Z,4.33
2017-10-09T09:49:11.175Z,3.10
2017-10-09T09:51:39.324Z,2.60
2017-10-09T09:54:07.482Z,4.83
2017-10-09T09:56:36.394Z,3.23
2017-10-09T09:59:04.579Z,4.87
2017-10-09T10:01:33.525Z,4.50
2017-10-09T10:04:02.298Z,5.43
2017-10-09T10:06:30.941Z,3.77
2017-10-09T10:08:59.181Z,1.87
2017-10-09T10:11:27.382Z,5.40
2017-10-09T10:13:56.119Z,3.53
2017-10-09T10:16:25.118Z,4.00
2017-10-09T10:18:54.659Z,3.87
2017-10-09T10:21:23.575Z,3.37
2017-10-09T10:23:51.740Z,4.40
2017-10-09T10:26:21.032Z,2.87
2017-10-09T10:28:49.942Z,5.10
2017-10-09T10:31:18.821Z,3.73
2017-10-09T10:33:47.241Z,5.57
2017-10-09T10:36:15.382Z,3.47
2017-10-09T10:38:44.266Z,4.47
2017-10-09T10:41:13.817Z,6.90
2017-10-09T10:43:42.305Z,3.40
2017-10-09T10:46:10.516Z,2.30
2017-10-09T10:48:38.617Z,13.53
2017-10-09T10:51:06.724Z,4.53
2017-10-09T10:53:34.810Z,4.23
2017-10-09T10:56:03.726Z,5.50
2017-10-09T10:58:31.802Z,5.53
2017-10-09T11:01:01.403Z,5.67
2017-10-09T11:03:30.306Z,2.33
2017-10-09T11:05:58.389Z,5.53
2017-10-09T11:08:26.501Z,5.30
2017-10-09T11:10:54.635Z,4.90
2017-10-09T11:13:22.746Z,3.60
2017-10-09T11:15:51.639Z,4.77
2017-10-09T11:18:19.734Z,5.47
2017-10-09T11:20:47.906Z,2.87
2017-10-09T11:23:15.998Z,2.57
2017-10-09T11:25:44.118Z,5.70
2017-10-09T11:28:12.241Z,3.93
2017-10-09T11:30:40.377Z,6.20
2017-10-09T11:33:08.484Z,4.40
2017-10-09T11:35:36.666Z,4.80
2017-10-09T11:38:05.517Z,2.60
2017-10-09T11:40:33.666Z,3.87
2017-10-09T11:43:02.613Z,2.60
2017-10-09T11:45:30.690Z,3.20
2017-10-09T11:47:58.813Z,2.97
2017-10-09T11:50:26.896Z,6.83
2017-10-09T11:52:55.006Z,2.80
2017-10-09T11:55:23.089Z,4.30
2017-10-09T11:57:51.964Z,4.00
2017-10-09T12:00:20.854Z,4.00
2017-10-09T12:02:48.929Z,4.30
2017-10-09T12:05:17.062Z,7.20
2017-10-09T12:07:45.164Z,4.87
2017-10-09T12:10:13.270Z,4.27
2017-10-09T12:12:41.519Z,3.10
2017-10-09T12:15:10.428Z,4.30
2017-10-09T12:17:38.497Z,4.07
2017-10-09T12:20:06.652Z,4.43
2017-10-09T12:22:34.728Z,2.70
2017-10-09T12:25:03.610Z,4.77
2017-10-09T12:27:33.238Z,4.63
2017-10-09T12:30:01.353Z,3.53
2017-10-09T12:32:31.007Z,2.80
2017-10-09T12:34:59.127Z,5.10
2017-10-09T12:37:28.026Z,3.10
2017-10-09T12:39:56.166Z,3.60
2017-10-09T12:42:24.327Z,4.80
2017-10-09T12:44:52.486Z,3.23
2017-10-09T12:47:20.669Z,4.77
2017-10-09T12:49:48.741Z,5.93
2017-10-09T12:52:17.021Z,7.40
2017-10-09T12:54:45.930Z,4.43
2017-10-09T12:57:14.944Z,2.87
2017-10-09T12:59:43.055Z,4.43
2017-10-09T13:02:11.310Z,6.63
2017-10-09T13:04:40.174Z,2.70
2017-10-09T13:07:08.250Z,2.97
2017-10-09T13:09:36.388Z,2.60
2017-10-09T13:12:04.581Z,5.17
2017-10-09T13:14:32.673Z,3.07
2017-10-09T13:17:00.736Z,3.60
2017-10-09T13:19:29.084Z,1.80
2017-10-09T13:21:57.162Z,2.90
2017-10-09T13:24:25.266Z,5.90
2017-10-09T13:26:53.352Z,2.33
2017-10-09T13:29:21.449Z,11.33
2017-10-09T13:31:49.630Z,11.20
2017-10-09T13:34:17.738Z,16.13
2017-10-09T13:36:47.331Z,8.47
2017-10-09T13:39:15.439Z,16.50
2017-10-09T13:41:43.605Z,12.20
2017-10-09T13:44:11.734Z,7.57
2017-10-09T13:46:41.326Z,11.43
2017-10-09T13:49:09.431Z,6.53
2017-10-09T13:51:38.285Z,10.63
2017-10-09T13:54:06.463Z,5.80
2017-10-09T13:56:34.570Z,5.03
2017-10-09T13:59:02.701Z,2.90
2017-10-09T14:01:30.824Z,3.60
2017-10-09T14:03:58.940Z,5.87
2017-10-09T14:06:27.044Z,2.90
2017-10-09T14:08:55.219Z,3.63
2017-10-09T14:11:24.058Z,7.73
2017-10-09T14:13:52.181Z,4.37
2017-10-09T14:16:20.384Z,5.77
2017-10-09T14:18:48.463Z,3.37
2017-10-09T14:21:16.618Z,5.87
2017-10-09T14:23:44.722Z,19.40
2017-10-09T14:26:13.890Z,6.03
2017-10-09T14:28:42.002Z,20.20
2017-10-09T14:31:10.096Z,17.33
2017-10-09T14:41:03.487Z,10.50
2017-10-09T14:43:31.670Z,5.23
2017-10-09T14:45:59.801Z,2.77
2017-10-09T14:48:28.066Z,3.73
2017-10-09T14:50:57.032Z,2.27
2017-10-09T14:53:25.055Z,4.30
2017-10-09T14:55:53.159Z,4.10
2017-10-09T14:58:21.276Z,6.20
2017-10-09T15:00:49.408Z,3.23
2017-10-09T15:03:17.511Z,3.10
2017-10-09T15:05:45.577Z,4.93
2017-10-09T15:08:14.427Z,6.00
2017-10-09T15:10:42.525Z,7.03
2017-10-09T15:13:10.705Z,3.53
2017-10-09T15:15:39.524Z,4.07
2017-10-09T15:18:07.642Z,7.33
2017-10-09T15:20:35.725Z,3.93
2017-10-09T15:23:03.905Z,5.40
2017-10-09T15:25:32.009Z,4.30
2017-10-09T15:28:00.900Z,6.23
2017-10-09T15:30:28.970Z,3.63
2017-10-09T15:32:57.087Z,6.63
2017-10-09T15:35:25.175Z,4.90
2017-10-09T15:37:54.046Z,6.27
2017-10-09T15:40:22.931Z,5.90
2017-10-09T15:42:51.083Z,4.30
2017-10-09T15:45:19.196Z,5.03
2017-10-09T15:47:48.168Z,6.63
2017-10-09T15:50:17.041Z,2.93
2017-10-09T15:52:46.630Z,4.73
2017-10-09T15:55:14.976Z,5.10
2017-10-09T15:57:43.836Z,3.40
2017-10-09T16:00:11.963Z,2.53
2017-10-09T16:02:40.659Z,3.47
2017-10-09T16:05:09.569Z,2.90
2017-10-09T16:07:37.656Z,7.80
2017-10-09T16:10:06.518Z,19.60
2017-10-09T16:12:35.415Z,20.13
2017-10-09T16:15:03.528Z,56.73
2017-10-09T16:17:31.663Z,55.53
2017-10-09T16:19:59.806Z,23.17
2017-10-09T16:22:27.944Z,16.20
2017-10-09T16:24:56.114Z,17.47
2017-10-09T16:27:24.291Z,26.80
2017-10-09T16:29:53.283Z,26.83
2017-10-09T16:32:22.129Z,21.67
2017-10-09T16:34:50.259Z,14.27
2017-10-09T16:37:19.851Z,11.87
2017-10-09T16:39:48.337Z,15.13
2017-10-09T16:42:16.588Z,18.70
2017-10-09T16:44:44.697Z,14.37
2017-10-09T16:47:12.869Z,16.20
2017-10-09T16:49:41.785Z,12.40
2017-10-09T16:52:11.090Z,6.03
2017-10-09T16:54:39.220Z,6.60
2017-10-09T16:57:07.336Z,8.37
2017-10-09T16:59:36.286Z,5.17
2017-10-09T17:02:04.410Z,4.07
2017-10-09T17:04:33.285Z,5.87
2017-10-09T17:07:01.409Z,8.07
2017-10-09T17:09:29.614Z,11.90
2017-10-09T17:11:57.750Z,10.50
2017-10-09T17:14:25.983Z,10.17
2017-10-09T17:16:54.123Z,6.20
2017-10-09T17:19:22.265Z,7.37
2017-10-09T17:21:50.397Z,6.27
2017-10-09T17:24:18.506Z,6.20
2017-10-09T17:26:46.928Z,8.70
2017-10-09T17:29:15.081Z,7.93
2017-10-09T17:31:43.248Z,9.23
2017-10-09T17:34:11.532Z,5.63
2017-10-09T17:36:39.625Z,6.13
2017-10-09T17:39:07.703Z,6.10
2017-10-09T17:41:35.826Z,6.87
2017-10-09T17:44:03.931Z,6.20
2017-10-09T17:46:32.153Z,7.33
2017-10-09T17:49:00.360Z,7.10
2017-10-09T17:51:29.279Z,10.67
2017-10-09T17:53:58.204Z,34.53
2017-10-09T17:56:27.074Z,30.97
2017-10-09T17:58:55.231Z,63.23
2017-10-09T18:01:23.336Z,31.43
2017-10-09T18:03:51.446Z,15.60
2017-10-09T18:06:20.513Z,30.37
2017-10-09T18:08:48.600Z,56.57
2017-10-09T18:11:16.694Z,51.67
2017-10-09T18:13:45.549Z,21.17
2017-10-09T18:16:13.653Z,8.20
2017-10-09T18:18:41.735Z,4.30
2017-10-09T18:21:09.898Z,4.93
2017-10-09T18:23:37.974Z,8.00
2017-10-09T18:26:06.918Z,6.43
2017-10-09T18:28:35.056Z,8.53
2017-10-09T18:31:03.153Z,7.13
2017-10-09T18:33:31.239Z,4.77
2017-10-09T18:36:00.104Z,4.10
2017-10-09T18:38:28.970Z,5.57
2017-10-09T18:40:57.860Z,4.83
2017-10-09T18:43:27.487Z,68.30
2017-10-09T18:45:55.617Z,88.93
2017-10-09T18:48:23.698Z,10.50
2017-10-09T18:50:51.837Z,5.50
2017-10-09T18:53:19.929Z,3.20
2017-10-09T18:55:48.070Z,6.87
2017-10-09T18:58:16.186Z,7.03
2017-10-09T19:00:44.266Z,7.20
2017-10-09T19:03:12.371Z,4.40
2017-10-09T19:05:40.490Z,5.50
2017-10-09T19:08:08.571Z,5.87
2017-10-09T19:10:36.655Z,5.30
2017-10-09T19:13:04.752Z,3.90
2017-10-09T19:15:32.873Z,14.00
2017-10-09T19:18:00.995Z,4.93
2017-10-09T19:20:29.066Z,7.20
2017-10-09T19:22:58.665Z,4.30
2017-10-09T19:25:27.071Z,4.13
2017-10-09T19:27:55.201Z,5.50
2017-10-09T19:30:23.319Z,7.40
2017-10-09T19:32:51.443Z,5.67
2017-10-09T19:35:20.170Z,3.33
2017-10-09T19:37:49.064Z,6.93
2017-10-09T19:40:17.168Z,4.37
2017-10-09T19:42:45.255Z,7.00
2017-10-09T19:45:13.404Z,4.30
2017-10-09T19:47:41.486Z,4.27
2017-10-09T19:50:09.573Z,5.17
2017-10-09T19:52:37.958Z,6.40
2017-10-09T19:55:06.036Z,5.00
2017-10-09T19:57:34.155Z,4.50
2017-10-09T20:00:02.256Z,5.60
2017-10-09T20:02:30.359Z,7.10
2017-10-09T20:04:58.509Z,5.97
2017-10-09T20:07:26.607Z,4.80
2017-10-09T20:09:54.669Z,4.10
2017-10-09T20:12:22.811Z,5.80
2017-10-09T20:14:50.894Z,11.10
2017-10-09T20:17:19.010Z,5.40
2017-10-09T20:19:47.081Z,7.43
2017-10-09T20:22:15.167Z,8.63
2017-10-09T20:24:43.276Z,4.40
2017-10-09T20:27:11.408Z,5.73
2017-10-09T20:29:40.281Z,4.33
2017-10-09T20:32:08.373Z,5.07
2017-10-09T20:34:36.446Z,4.40
2017-10-09T20:37:04.522Z,6.93
2017-10-09T20:39:32.623Z,6.13
2017-10-09T20:42:01.454Z,5.90
2017-10-09T20:44:29.734Z,6.40
2017-10-09T20:46:57.802Z,7.57
2017-10-09T20:49:27.993Z,5.03
2017-10-09T20:51:56.638Z,9.90
2017-10-09T20:54:24.733Z,5.80
2017-10-09T20:56:53.695Z,4.73
2017-10-09T20:59:21.760Z,7.87
2017-10-09T21:01:50.181Z,4.77
2017-10-09T21:04:18.419Z,8.93
2017-10-09T21:06:46.486Z,8.53
2017-10-09T21:09:14.615Z,11.00
2017-10-09T21:11:42.733Z,7.17
2017-10-09T21:14:10.858Z,12.97
2017-10-09T21:16:38.942Z,7.90
2017-10-09T21:19:07.891Z,9.27
2017-10-09T21:21:35.978Z,13.60
2017-10-09T21:24:04.093Z,10.03
2017-10-09T21:26:32.178Z,8.33
2017-10-09T21:29:00.256Z,11.90
2017-10-09T21:31:29.142Z,11.80
2017-10-09T21:33:57.211Z,11.60
2017-10-09T21:36:26.135Z,11.20
2017-10-09T21:38:54.229Z,10.67
2017-10-09T21:41:22.505Z,10.23
2017-10-09T21:43:50.590Z,11.33
2017-10-09T21:46:19.503Z,13.37
2017-10-09T21:48:47.603Z,11.07
2017-10-09T21:51:15.678Z,12.77
2017-10-09T21:53:43.786Z,9.40
2017-10-09T21:56:11.902Z,13.43
2017-10-09T21:58:40.738Z,12.77
2017-10-09T22:01:08.868Z,11.73
2017-10-09T22:03:36.980Z,12.07
2017-10-09T22:06:05.092Z,13.53
2017-10-09T22:08:33.202Z,15.87
2017-10-09T22:11:02.062Z,14.77
2017-10-09T22:13:30.972Z,14.33
2017-10-09T22:15:59.135Z,14.27
2017-10-09T22:18:27.223Z,14.47
2017-10-09T22:20:56.086Z,15.70
2017-10-09T22:23:24.989Z,12.60
2017-10-09T22:25:53.075Z,12.37
2017-10-09T22:28:21.922Z,13.57
2017-10-09T22:30:50.026Z,16.53
2017-10-09T22:33:18.158Z,16.83
2017-10-09T22:35:46.240Z,12.47
2017-10-09T22:38:14.340Z,14.63
2017-10-09T22:40:43.498Z,11.13
2017-10-09T22:43:11.582Z,12.40
2017-10-09T22:45:39.678Z,15.40
2017-10-09T22:48:07.749Z,12.73
2017-10-09T22:50:35.821Z,9.97
2017-10-09T22:53:03.964Z,9.43
2017-10-09T22:55:32.027Z,9.83
2017-10-09T22:58:00.104Z,16.80
2017-10-09T23:00:28.247Z,12.63
2017-10-09T23:02:56.351Z,10.43
2017-10-09T23:05:24.421Z,9.00
2017-10-09T23:07:52.752Z,11.03
2017-10-09T23:10:21.595Z,9.60
2017-10-09T23:12:49.682Z,9.30
2017-10-09T23:15:18.588Z,11.50
2017-10-09T23:17:47.442Z,9.27
2017-10-09T23:20:15.515Z,10.23
2017-10-09T23:22:43.616Z,10.37
2017-10-09T23:25:11.842Z,8.30
2017-10-09T23:27:39.997Z,12.53
2017-10-09T23:30:09.637Z,10.40
2017-10-09T23:32:37.717Z,8.80
2017-10-09T23:35:05.804Z,9.17
2017-10-09T23:37:33.897Z,10.73
2017-10-09T23:40:02.051Z,9.77
2017-10-09T23:42:30.118Z,10.10
2017-10-09T23:44:58.205Z,10.83
2017-10-09T23:47:26.324Z,7.37
2017-10-09T23:49:55.158Z,10.33
2017-10-09T23:52:23.273Z,11.93
2017-10-09T23:54:51.363Z,13.17
2017-10-09T23:57:20.974Z,9.17
2017-10-09T23:59:49.082Z,8.57
